Time;durP1;ratioP1;P1;durP2;ratioP2;P2;SDS_P1;SDS_P2;PMS_P1;PMS_P2;Temp;Humidity;BMP_temperature;BMP_pressure;BME280_temperature;BME280_humidity;BME280_pressure;Samples;Min_cycle;Max_cycle;Signal;HPM_P1;HPM_P2
2023/03/30 00:00:17;;;;;;;;;9.00;9.00;;;;;13.02;72.95;100459.84;5001854;28;9764;-66
2023/03/30 00:02:49;;;;;;;;;11.00;10.00;;;;;13.02;73.11;100461.72;4996730;28;9788;-66
2023/03/30 00:05:17;;;;;;;;;9.00;8.50;;;;;13.02;72.83;100459.00;4996563;28;9814;-66
2023/03/30 00:07:44;;;;;;;;;7.25;6.75;;;;;13.04;73.19;100448.78;4995891;28;9861;-66
2023/03/30 00:10:16;;;;;;;;;7.75;6.00;;;;;13.06;73.20;100442.13;5006176;28;9771;-66
2023/03/30 00:12:45;;;;;;;;;6.00;6.00;;;;;13.08;73.04;100441.91;5010060;28;9692;-66
2023/03/30 00:15:15;;;;;;;;;9.00;7.00;;;;;13.07;73.14;100441.06;5012542;28;9801;-66
2023/03/30 00:17:42;;;;;;;;;5.75;5.75;;;;;13.07;73.05;100437.56;4994107;28;9838;-67
2023/03/30 00:20:11;;;;;;;;;5.00;5.00;;;;;13.06;73.18;100428.63;4995278;28;9480;-66
2023/03/30 00:22:38;;;;;;;;;8.00;6.00;;;;;13.07;73.13;100441.06;5012574;28;9553;-66
2023/03/30 00:25:08;;;;;;;;;7.00;7.00;;;;;13.05;73.07;100431.56;5012188;28;9753;-66
2023/03/30 00:27:36;;;;;;;;;6.75;6.00;;;;;13.05;73.16;100426.16;5011163;28;9622;-67
2023/03/30 00:30:06;;;;;;;;;6.75;5.25;;;;;13.04;73.03;100419.91;4993085;28;9700;-66
2023/03/30 00:32:33;;;;;;;;;7.25;5.00;;;;;13.02;73.04;100413.91;5005861;28;9707;-66
2023/03/30 00:35:00;;;;;;;;;7.50;6.75;;;;;13.03;73.30;100417.41;4994433;28;9589;-67
2023/03/30 00:37:28;;;;;;;;;6.75;6.75;;;;;13.01;73.14;100414.94;4992195;28;9703;-66
2023/03/30 00:39:55;;;;;;;;;9.25;9.25;;;;;13.03;73.37;100406.63;4994361;28;9675;-67
2023/03/30 00:42:22;;;;;;;;;7.75;7.75;;;;;13.04;73.56;100408.25;5012223;28;9715;-66
2023/03/30 00:45:16;;;;;;;;;3.50;3.50;;;;;13.04;73.32;100408.25;4994400;28;9555;-68
2023/03/30 00:48:07;;;;;;;;;5.50;5.00;;;;;12.99;73.44;100397.28;5009422;28;9528;-66
2023/03/30 00:50:42;;;;;;;;;5.00;5.00;;;;;12.97;73.39;100402.09;4988819;28;9682;-66
2023/03/30 00:53:39;;;;;;;;;7.50;7.00;;;;;12.97;73.42;100402.94;4994480;28;9472;-66
2023/03/30 00:56:08;;;;;;;;;6.25;6.25;;;;;12.90;73.10;100388.66;5004157;28;9702;-66
2023/03/30 00:58:38;;;;;;;;;8.00;7.25;;;;;12.91;72.69;100397.56;4994676;28;9557;-66
2023/03/30 01:01:09;;;;;;;;;5.00;5.00;;;;;12.87;72.37;100381.81;4978160;28;10034;-66
2023/03/30 01:03:44;;;;;;;;;4.50;3.25;;;;;12.94;72.32;100391.75;5011433;28;9536;-66
2023/03/30 01:06:12;;;;;;;;;5.50;3.25;;;;;12.92;72.13;100385.72;4996442;28;10234;-66
2023/03/30 01:08:41;;;;;;;;;3.00;2.50;;;;;12.92;72.15;100385.72;4979001;28;10375;-66
2023/03/30 01:11:07;;;;;;;;;6.00;5.50;;;;;12.93;71.87;100387.38;5009759;28;9558;-66
2023/03/30 01:13:38;;;;;;;;;2.50;2.50;;;;;13.02;71.69;100388.75;4993793;28;9421;-66
2023/03/30 01:16:11;;;;;;;;;1.00;1.00;;;;;13.10;71.95;100381.19;5010629;28;9427;-67
2023/03/30 01:19:00;;;;;;;;;2.33;2.00;;;;;13.14;71.78;100375.34;5011432;28;9499;-66
2023/03/30 01:21:47;;;;;;;;;1.67;1.00;;;;;13.10;72.33;100380.38;4988609;28;9403;-66
2023/03/30 01:24:36;;;;;;;;;3.50;1.50;;;;;13.11;72.42;100380.13;4985352;28;9400;-66
2023/03/30 01:27:23;;;;;;;;;1.00;1.00;;;;;13.14;72.44;100372.66;4990760;28;9391;-66
2023/03/30 01:30:25;;;;;;;;;2.00;1.00;;;;;13.17;72.59;100370.34;4988686;28;9336;-66
2023/03/30 01:33:10;;;;;;;;;3.00;3.00;;;;;13.15;72.75;100367.00;5007050;28;9581;-66
2023/03/30 01:35:56;;;;;;;;;2.00;2.00;;;;;13.18;72.72;100365.75;5010205;28;9448;-66
2023/03/30 01:38:41;;;;;;;;;2.25;2.25;;;;;13.11;72.79;100355.00;4988625;28;9461;-66
2023/03/30 01:41:33;;;;;;;;;1.00;1.00;;;;;13.15;72.57;100352.69;4988084;28;9470;-66
2023/03/30 01:44:31;;;;;;;;;3.00;1.33;;;;;13.15;72.49;100350.78;5011113;28;9392;-66
2023/03/30 01:47:07;;;;;;;;;2.00;2.00;;;;;13.09;72.63;100357.09;5011392;28;9329;-66
2023/03/30 01:49:45;;;;;;;;;1.75;1.75;;;;;13.01;72.96;100349.28;4989976;28;9371;-66
2023/03/30 01:52:23;;;;;;;;;2.00;2.00;;;;;12.94;72.88;100343.09;4992163;28;9388;-66
2023/03/30 01:54:58;;;;;;;;;1.00;1.00;;;;;12.98;72.36;100339.75;4993114;28;10259;-66
2023/03/30 01:57:34;;;;;;;;;5.75;3.00;;;;;13.03;72.25;100341.78;4993550;28;9421;-66
2023/03/30 02:00:14;;;;;;;;;2.00;1.00;;;;;13.04;72.11;100327.19;5011225;28;9464;-66
2023/03/30 02:02:47;;;;;;;;;1.00;1.00;;;;;13.04;72.11;100319.09;4980717;28;9348;-66
2023/03/30 02:05:17;;;;;;;;;1.33;1.33;;;;;13.00;72.13;100304.38;4983530;28;9319;-66
2023/03/30 02:07:53;;;;;;;;;1.50;1.50;;;;;13.00;72.05;100310.59;4993527;28;9645;-66
2023/03/30 02:10:24;;;;;;;;;2.00;2.00;;;;;12.95;72.15;100312.34;4993676;28;9458;-67
2023/03/30 02:12:53;;;;;;;;;1.00;1.00;;;;;12.95;72.23;100317.75;5005960;28;9405;-67
2023/03/30 02:15:21;;;;;;;;;2.67;2.00;;;;;12.94;71.77;100327.72;5009720;28;9469;-67
2023/03/30 02:17:47;;;;;;;;;2.00;2.00;;;;;12.98;72.17;100325.41;5009061;28;9330;-67
2023/03/30 02:20:17;;;;;;;;;1.00;1.00;;;;;13.00;72.12;100326.81;4992979;28;9411;-67
2023/03/30 02:22:44;;;;;;;;;5.00;3.00;;;;;12.99;72.13;100327.06;4977058;28;10310;-66
2023/03/30 02:25:12;;;;;;;;;2.00;2.00;;;;;13.00;72.18;100328.69;4992671;28;9543;-66
2023/03/30 02:27:40;;;;;;;;;1.50;1.50;;;;;12.96;72.37;100327.50;5008819;28;9377;-67
2023/03/30 02:30:08;;;;;;;;;2.00;2.00;;;;;12.94;72.51;100337.72;4999083;28;9526;-66
2023/03/30 02:32:46;;;;;;;;;3.50;3.00;;;;;12.92;72.91;100339.78;4990669;28;9486;-66
2023/03/30 02:35:42;;;;;;;;;4.00;2.75;;;;;12.92;72.79;100339.78;4992697;28;9631;-66
2023/03/30 02:38:44;;;;;;;;;1.00;1.00;;;;;12.96;72.80;100335.59;5003224;28;9589;-66
2023/03/30 02:41:32;;;;;;;;;1.00;1.00;;;;;12.91;73.07;100325.47;4895988;29;9654;-66
2023/03/30 02:44:02;;;;;;;;;5.25;3.25;;;;;12.86;73.14;100326.13;4970291;28;9464;-66
2023/03/30 02:46:47;;;;;;;;;1.00;1.00;;;;;12.94;73.11;100322.31;4989895;28;9530;-67
2023/03/30 02:49:16;;;;;;;;;1.50;1.50;;;;;12.96;72.98;100325.63;4989753;28;10160;-66
2023/03/30 02:51:59;;;;;;;;;2.25;2.00;;;;;12.99;73.07;100329.75;4991974;28;9547;-66
2023/03/30 02:54:49;;;;;;;;;1.00;1.00;;;;;12.99;73.13;100318.94;4992303;28;9623;-67
2023/03/30 02:57:42;;;;;;;;;1.00;1.00;;;;;12.92;73.36;100329.81;5000716;28;9525;-67
2023/03/30 03:00:46;;;;;;;;;5.00;2.75;;;;;12.84;73.98;100325.53;4962479;28;9471;-66
2023/03/30 03:03:26;;;;;;;;;3.00;3.00;;;;;12.87;74.18;100324.25;4990413;28;9496;-67
2023/03/30 03:05:55;;;;;;;;;5.00;3.25;;;;;12.89;74.35;100334.84;4984779;28;9469;-67
2023/03/30 03:08:34;;;;;;;;;2.50;2.50;;;;;12.98;74.28;100333.50;4991144;28;9501;-67
2023/03/30 03:11:01;;;;;;;;;2.75;2.75;;;;;12.89;74.30;100330.28;4989484;28;9463;-66
2023/03/30 03:13:29;;;;;;;;;3.50;2.50;;;;;12.91;74.10;100330.03;4989302;28;9419;-67
2023/03/30 03:15:57;;;;;;;;;3.00;2.00;;;;;12.96;74.34;100322.91;4990276;28;9400;-67
2023/03/30 03:18:26;;;;;;;;;2.00;2.00;;;;;12.98;74.33;100317.31;4992499;28;9509;-67
2023/03/30 03:20:53;;;;;;;;;1.00;1.00;;;;;12.94;74.24;100316.09;4992253;28;9649;-67
2023/03/30 03:23:22;;;;;;;;;2.00;2.00;;;;;12.90;74.81;100314.88;4992428;28;9555;-67
2023/03/30 03:25:52;;;;;;;;;2.00;2.00;;;;;12.92;75.13;100308.19;4986826;28;9483;-67
2023/03/30 03:28:19;;;;;;;;;1.67;1.67;;;;;12.91;75.36;100300.31;5001461;28;9452;-67
2023/03/30 03:30:50;;;;;;;;;1.75;1.75;;;;;12.95;74.93;100298.81;5007793;28;10102;-67
2023/03/30 03:33:20;;;;;;;;;2.67;1.00;;;;;12.98;74.80;100299.22;4992695;28;9601;-66
2023/03/30 03:35:57;;;;;;;;;0.33;0.33;;;;;12.99;75.00;100308.13;4992138;28;9604;-67
2023/03/30 03:38:26;;;;;;;;;2.00;1.33;;;;;12.97;74.70;100300.28;4987661;28;9397;-67
2023/03/30 03:40:57;;;;;;;;;1.33;1.00;;;;;12.97;74.76;100292.16;4992313;28;9441;-67
2023/03/30 03:43:24;;;;;;;;;2.00;1.00;;;;;13.00;74.71;100296.28;4996022;28;9404;-67
2023/03/30 03:45:51;;;;;;;;;1.00;1.00;;;;;12.99;74.67;100291.94;4995357;28;9471;-67
2023/03/30 03:48:20;;;;;;;;;2.00;1.33;;;;;12.98;74.70;100288.41;4979708;28;9341;-66
2023/03/30 03:50:57;;;;;;;;;1.00;1.00;;;;;13.02;74.36;100277.97;4992168;28;9910;-66
2023/03/30 03:53:27;;;;;;;;;3.00;3.00;;;;;12.95;74.66;100279.91;5011935;28;9393;-66
2023/03/30 03:55:58;;;;;;;;;1.67;0.33;;;;;12.99;74.58;100281.94;4992176;28;10271;-67
2023/03/30 03:58:26;;;;;;;;;2.00;1.50;;;;;12.96;74.29;100279.69;4992987;28;9408;-66
2023/03/30 04:00:58;;;;;;;;;2.50;2.50;;;;;12.86;74.49;100272.09;5012617;28;9356;-67
2023/03/30 04:03:24;;;;;;;;;2.25;2.00;;;;;12.91;74.60;100274.13;5000302;28;9494;-68
2023/03/30 04:05:52;;;;;;;;;3.50;3.50;;;;;12.89;74.45;100270.03;5019422;23;9546;-66
2023/03/30 04:08:20;;;;;;;;;2.00;1.67;;;;;12.91;74.52;100273.31;5023548;28;9552;-68
2023/03/30 04:10:46;;;;;;;;;4.00;4.00;;;;;12.86;74.68;100272.09;5028001;28;9533;-67
2023/03/30 04:13:22;;;;;;;;;4.50;2.75;;;;;12.87;74.67;100273.75;5012084;28;9374;-66
2023/03/30 04:16:08;;;;;;;;;3.00;2.75;;;;;12.90;74.34;100271.66;5012876;28;10080;-69
2023/03/30 04:18:53;;;;;;;;;1.67;1.00;;;;;12.88;74.63;100269.16;5012872;28;9512;-65
2023/03/30 04:21:48;;;;;;;;;1.33;1.33;;;;;12.90;74.72;100261.69;5000522;28;9263;-65
2023/03/30 04:24:34;;;;;;;;;5.25;5.00;;;;;12.90;74.52;100267.09;5012812;28;9292;-66
2023/03/30 04:27:19;;;;;;;;;2.00;1.50;;;;;12.91;74.56;100257.09;5012860;28;9613;-65
2023/03/30 04:30:05;;;;;;;;;4.00;4.00;;;;;12.85;74.88;100261.53;5010479;28;10516;-66
2023/03/30 04:32:37;;;;;;;;;1.00;1.00;;;;;12.86;74.87;100263.19;5011232;28;9409;-67
2023/03/30 04:35:24;;;;;;;;;3.00;2.00;;;;;12.82;74.93;100261.97;5011669;28;9494;-67
2023/03/30 04:37:57;;;;;;;;;2.50;2.00;;;;;12.81;75.03;100266.56;5012806;28;9475;-68
2023/03/30 04:40:41;;;;;;;;;0.33;0.33;;;;;12.83;74.90;100269.03;5010871;28;9566;-68
2023/03/30 04:43:20;;;;;;;;;3.00;1.00;;;;;12.79;74.73;100265.13;5027732;28;9382;-67
2023/03/30 04:46:07;;;;;;;;;1.00;1.00;;;;;12.75;74.84;100261.22;5012011;28;9462;-68
2023/03/30 04:48:47;;;;;;;;;3.25;3.00;;;;;12.70;74.80;100261.88;5017779;28;9524;-65
2023/03/30 04:51:36;;;;;;;;;1.00;1.00;;;;;12.74;74.24;100265.78;5007603;28;9456;-69
2023/03/30 04:54:25;;;;;;;;;2.00;2.00;;;;;12.72;74.55;100267.91;5020951;28;9673;-66
2023/03/30 04:56:54;;;;;;;;;2.00;2.00;;;;;12.70;74.63;100247.56;5005177;28;9666;-69
2023/03/30 04:59:37;;;;;;;;;2.00;2.00;;;;;12.62;74.88;100259.47;5010657;28;9543;-69
2023/03/30 05:02:39;;;;;;;;;2.25;2.00;;;;;12.63;74.86;100269.22;5010741;28;9619;-67
2023/03/30 05:05:39;;;;;;;;;1.25;1.00;;;;;12.63;75.21;100269.22;5010442;28;9515;-64
2023/03/30 05:08:27;;;;;;;;;2.75;1.75;;;;;12.65;74.87;100264.44;5008665;28;9618;-67
2023/03/30 05:11:19;;;;;;;;;1.00;1.00;;;;;12.52;75.39;100273.47;5026827;28;9570;-64
2023/03/30 05:14:08;;;;;;;;;1.00;1.00;;;;;12.49;75.57;100259.59;4983487;28;9682;-65
2023/03/30 05:16:58;;;;;;;;;4.50;3.00;;;;;12.49;75.58;100259.59;5012070;28;9760;-65
2023/03/30 05:19:36;;;;;;;;;2.50;2.50;;;;;12.43;75.81;100255.06;5009077;28;9680;-64
2023/03/30 05:22:20;;;;;;;;;2.50;2.50;;;;;12.40;76.16;100261.75;5006456;28;9478;-67
2023/03/30 05:24:57;;;;;;;;;2.25;2.00;;;;;12.32;76.22;100268.25;5010075;28;9546;-65
2023/03/30 05:27:38;;;;;;;;;3.75;2.00;;;;;12.33;76.51;100271.75;5008002;28;9533;-67
2023/03/30 05:30:14;;;;;;;;;2.00;2.00;;;;;12.27;76.59;100261.81;5008419;28;9596;-66
2023/03/30 05:33:01;;;;;;;;;2.25;2.25;;;;;12.24;76.67;100276.59;4969665;28;9672;-66
2023/03/30 05:35:38;;;;;;;;;2.00;2.00;;;;;12.29;76.96;100281.34;5010195;28;9558;-69
2023/03/30 05:38:22;;;;;;;;;4.00;4.00;;;;;12.30;76.84;100267.63;5009856;28;9600;-68
2023/03/30 05:41:07;;;;;;;;;1.00;1.00;;;;;12.28;76.49;100277.00;5009251;28;9634;-71
2023/03/30 05:43:53;;;;;;;;;2.00;2.00;;;;;12.25;77.14;100285.53;5010558;28;9606;-65
2023/03/30 05:46:35;;;;;;;;;7.00;1.50;;;;;12.18;76.08;100276.63;5009633;28;9661;-65
2023/03/30 05:49:27;;;;;;;;;1.00;1.00;;;;;12.12;76.68;100281.06;5020424;28;9740;-65
2023/03/30 05:52:06;;;;;;;;;2.00;2.00;;;;;12.09;76.52;100284.19;5010252;28;9652;-69
2023/03/30 05:55:12;;;;;;;;;1.00;1.00;;;;;12.06;76.44;100284.59;4969659;28;9616;-65
2023/03/30 05:57:51;;;;;;;;;6.75;4.25;;;;;12.09;76.51;100289.56;4969521;28;9542;-67
2023/03/30 06:00:35;;;;;;;;;6.50;2.25;;;;;12.16;76.01;100284.16;4995382;28;9686;-65
2023/03/30 06:03:11;;;;;;;;;3.50;2.00;;;;;12.21;75.75;100290.53;5010362;28;9710;-65
2023/03/30 06:05:40;;;;;;;;;6.75;3.00;;;;;12.32;75.45;100286.31;5008554;28;9611;-65
2023/03/30 06:08:07;;;;;;;;;4.25;3.25;;;;;12.33;74.92;100285.25;5009375;28;9771;-65
2023/03/30 06:10:34;;;;;;;;;5.00;3.00;;;;;12.35;74.62;100296.63;5009867;28;9746;-67
2023/03/30 06:13:01;;;;;;;;;4.25;2.00;;;;;12.35;74.79;100294.75;5009602;28;9727;-66
2023/03/30 06:15:54;;;;;;;;;2.75;2.00;;;;;12.42;74.52;100300.13;5011541;28;9718;-66
2023/03/30 06:18:24;;;;;;;;;1.00;1.00;;;;;12.44;74.24;100310.72;5010849;28;9465;-68
2023/03/30 06:21:01;;;;;;;;;6.00;2.50;;;;;12.38;73.92;100305.13;5008592;28;9465;-67
2023/03/30 06:23:28;;;;;;;;;1.75;1.75;;;;;12.40;74.39;100312.19;5008644;28;10160;-68
2023/03/30 06:26:00;;;;;;;;;5.25;1.75;;;;;12.32;74.12;100313.28;5009273;28;9534;-64
2023/03/30 06:28:30;;;;;;;;;4.25;3.50;;;;;12.25;74.63;100316.03;5009266;28;9609;-64
2023/03/30 06:30:57;;;;;;;;;3.00;2.00;;;;;12.27;74.59;100322.03;5009492;28;9623;-65
2023/03/30 06:33:24;;;;;;;;;4.50;2.75;;;;;12.14;74.69;100314.03;5009468;28;9808;-65
2023/03/30 06:35:54;;;;;;;;;3.25;3.25;;;;;12.15;75.13;100310.28;5025707;28;9522;-68
2023/03/30 06:38:22;;;;;;;;;5.00;4.00;;;;;12.10;74.95;100310.94;5020406;28;9687;-68
2023/03/30 06:40:51;;;;;;;;;7.00;6.25;;;;;11.99;75.32;100316.19;5009430;28;9735;-68
2023/03/30 06:43:23;;;;;;;;;3.00;2.00;;;;;12.03;75.54;100325.50;5008960;28;9629;-67
2023/03/30 06:45:58;;;;;;;;;4.75;1.50;;;;;12.05;75.57;100321.53;5008921;28;9865;-67
2023/03/30 06:48:25;;;;;;;;;4.50;2.00;;;;;12.12;75.54;100321.53;5009179;28;9618;-68
2023/03/30 06:51:15;;;;;;;;;3.25;3.00;;;;;12.12;75.67;100327.75;5009976;28;9609;-67
2023/03/30 06:53:42;;;;;;;;;5.25;4.00;;;;;12.13;75.19;100326.69;5006360;28;10329;-64
2023/03/30 06:56:08;;;;;;;;;5.25;3.00;;;;;12.08;75.11;100329.22;4990558;28;9759;-66
2023/03/30 06:58:44;;;;;;;;;5.75;2.25;;;;;12.02;75.59;100326.53;5005677;28;9705;-65
2023/03/30 07:01:13;;;;;;;;;2.00;2.00;;;;;12.05;75.73;100328.81;4989812;28;9899;-66
2023/03/30 07:03:59;;;;;;;;;4.00;2.00;;;;;12.10;75.44;100329.81;5010157;28;10335;-65
2023/03/30 07:06:41;;;;;;;;;2.00;2.00;;;;;12.03;75.39;100337.13;5006979;28;9687;-64
2023/03/30 07:09:08;;;;;;;;;2.00;2.00;;;;;12.11;75.50;100333.34;5010213;28;9675;-69
2023/03/30 07:11:34;;;;;;;;;4.75;3.00;;;;;12.15;75.40;100345.34;5024821;28;9961;-69
2023/03/30 07:14:01;;;;;;;;;9.50;7.25;;;;;12.14;74.99;100343.69;5008815;28;9827;-67
2023/03/30 07:16:27;;;;;;;;;6.00;3.75;;;;;12.11;74.65;100346.81;5011593;28;9859;-68
2023/03/30 07:18:54;;;;;;;;;8.00;2.25;;;;;12.12;74.79;100356.59;5013118;28;9602;-68
2023/03/30 07:21:21;;;;;;;;;5.25;4.00;;;;;12.16;74.75;100359.69;5012616;28;9683;-68
2023/03/30 07:23:47;;;;;;;;;2.75;2.25;;;;;12.20;74.44;100363.59;5012804;28;9683;-68
2023/03/30 07:26:25;;;;;;;;;7.75;3.00;;;;;12.32;74.26;100369.97;5012423;28;9627;-69
2023/03/30 07:28:57;;;;;;;;;9.00;3.75;;;;;12.46;73.91;100381.50;5014442;28;10107;-68
2023/03/30 07:31:24;;;;;;;;;5.25;5.00;;;;;12.56;73.13;100365.66;5026918;28;9664;-65
2023/03/30 07:33:51;;;;;;;;;3.75;3.75;;;;;12.57;72.78;100381.63;5012596;28;9624;-67
2023/03/30 07:36:22;;;;;;;;;2.50;2.25;;;;;12.68;72.01;100374.72;5011782;28;9539;-68
2023/03/30 07:38:49;;;;;;;;;6.50;2.25;;;;;12.71;71.51;100387.75;5028954;28;9544;-68
2023/03/30 07:41:16;;;;;;;;;2.00;2.00;;;;;12.72;71.37;100384.03;5028426;28;9636;-67
2023/03/30 07:43:46;;;;;;;;;6.50;5.25;;;;;12.89;71.24;100383.47;5011301;28;9418;-66
2023/03/30 07:46:12;;;;;;;;;4.00;3.00;;;;;13.03;70.62;100382.31;5009198;28;9376;-66
2023/03/30 07:48:43;;;;;;;;;1.00;1.00;;;;;13.27;69.72;100380.66;5012083;28;9382;-65
2023/03/30 07:51:12;;;;;;;;;2.00;2.00;;;;;13.22;68.65;100385.88;5012128;28;9433;-66
2023/03/30 07:53:52;;;;;;;;;2.00;2.00;;;;;13.18;68.19;100392.78;4992803;28;9301;-68
2023/03/30 07:56:25;;;;;;;;;0.33;0.33;;;;;13.13;67.79;100387.22;5010950;28;9333;-68
2023/03/30 07:58:53;;;;;;;;;1.00;1.00;;;;;13.19;67.61;100395.25;5011560;28;9327;-65
2023/03/30 08:01:25;;;;;;;;;2.00;1.00;;;;;13.03;67.77;100395.81;5011911;28;9165;-65
2023/03/30 08:04:08;;;;;;;;;3.33;2.00;;;;;13.04;67.73;100411.78;5012077;28;9157;-66
2023/03/30 08:06:35;;;;;;;;;3.00;1.67;;;;;12.89;67.91;100405.09;5011934;28;9307;-65
2023/03/30 08:09:03;;;;;;;;;3.00;1.33;;;;;12.99;68.27;100417.03;5000443;28;9301;-65
2023/03/30 08:11:30;;;;;;;;;4.25;1.25;;;;;13.00;67.84;100410.56;5011866;28;9439;-65
2023/03/30 08:13:56;;;;;;;;;3.00;2.00;;;;;12.96;68.26;100411.25;5028473;28;9488;-68
2023/03/30 08:16:23;;;;;;;;;2.00;1.00;;;;;13.01;68.76;100411.44;5012231;28;9450;-66
2023/03/30 08:18:53;;;;;;;;;2.00;2.00;;;;;13.08;68.86;100409.47;5013359;28;9451;-66
2023/03/30 08:21:23;;;;;;;;;8.00;5.75;;;;;13.07;69.06;100416.75;5012970;28;9396;-65
2023/03/30 08:23:51;;;;;;;;;3.75;2.00;;;;;12.98;69.45;100409.16;5013144;28;9619;-66
2023/03/30 08:26:18;;;;;;;;;3.25;3.25;;;;;13.07;69.79;100413.22;5011729;28;9511;-66
2023/03/30 08:28:44;;;;;;;;;9.00;4.00;;;;;13.14;69.61;100405.91;5012926;28;10246;-66
2023/03/30 08:31:10;;;;;;;;;3.75;3.25;;;;;13.38;69.71;100414.25;5010740;28;9588;-67
2023/03/30 08:33:38;;;;;;;;;2.00;2.00;;;;;13.65;69.01;100421.00;5012833;28;9523;-66
2023/03/30 08:36:04;;;;;;;;;6.00;4.33;;;;;13.76;67.88;100417.56;5012586;28;9382;-66
2023/03/30 08:38:31;;;;;;;;;5.00;4.00;;;;;13.83;67.49;100418.31;5011247;28;9295;-67
2023/03/30 08:40:58;;;;;;;;;4.33;4.33;;;;;13.82;67.08;100413.16;5012856;28;9326;-66
2023/03/30 08:43:32;;;;;;;;;3.67;3.67;;;;;14.01;67.21;100406.63;5012614;28;9405;-66
2023/03/30 08:46:00;;;;;;;;;4.00;2.00;;;;;14.12;66.28;100413.19;5012572;28;9358;-66
2023/03/30 08:48:31;;;;;;;;;3.00;3.00;;;;;14.30;66.06;100415.88;5012481;28;9406;-65
2023/03/30 08:51:26;;;;;;;;;2.00;2.00;;;;;14.53;64.71;100430.56;5011524;28;9217;-66
2023/03/30 08:54:05;;;;;;;;;4.33;2.00;;;;;14.64;64.29;100415.41;5010812;28;9057;-66
2023/03/30 08:56:41;;;;;;;;;4.00;2.33;;;;;14.73;63.21;100425.69;5011955;28;9313;-66
2023/03/30 08:59:40;;;;;;;;;3.67;2.00;;;;;14.75;63.19;100420.03;5012405;28;9121;-67
2023/03/30 09:02:20;;;;;;;;;5.67;3.00;;;;;14.90;62.23;100433.97;5011424;28;9012;-66
2023/03/30 09:05:00;;;;;;;;;1.33;1.33;;;;;15.03;62.14;100427.53;5012148;28;9281;-66
2023/03/30 09:07:38;;;;;;;;;2.00;2.00;;;;;15.20;61.73;100433.91;5012141;28;9321;-66
2023/03/30 09:10:11;;;;;;;;;2.00;2.00;;;;;15.29;61.13;100434.38;5012374;28;9060;-66
2023/03/30 09:13:01;;;;;;;;;6.67;4.00;;;;;15.27;60.63;100440.03;5011908;28;9726;-66
2023/03/30 09:15:32;;;;;;;;;2.67;2.00;;;;;15.32;59.77;100429.31;5010467;28;9041;-65
2023/03/30 09:18:21;;;;;;;;;2.00;1.50;;;;;15.34;59.61;100440.72;5011856;28;8927;-68
2023/03/30 09:20:51;;;;;;;;;0.00;0.00;;;;;15.45;59.00;100447.22;5012245;28;8823;-67
2023/03/30 09:23:18;;;;;;;;;1.00;1.00;;;;;15.43;58.35;100443.09;5011722;28;8858;-68
2023/03/30 09:25:53;;;;;;;;;3.75;2.00;;;;;15.27;57.33;100453.59;5011437;28;8870;-68
2023/03/30 09:28:37;;;;;;;;;1.75;1.75;;;;;14.96;57.89;100454.72;5011581;28;8811;-67
2023/03/30 09:31:15;;;;;;;;;4.50;2.00;;;;;14.83;59.27;100450.34;5011792;28;8827;-68
2023/03/30 09:33:56;;;;;;;;;7.33;2.00;;;;;14.71;59.72;100471.16;5001560;28;8949;-67
2023/03/30 09:36:36;;;;;;;;;2.00;2.00;;;;;14.48;60.98;100469.13;5010955;28;9462;-68
2023/03/30 09:39:26;;;;;;;;;5.00;3.00;;;;;14.34;61.34;100481.19;5011868;28;8993;-68
2023/03/30 09:42:07;;;;;;;;;3.33;2.67;;;;;14.31;61.48;100471.66;5009765;28;9127;-68
2023/03/30 09:44:36;;;;;;;;;4.33;2.00;;;;;14.47;61.61;100477.50;5011285;28;9018;-67
2023/03/30 09:47:17;;;;;;;;;2.00;1.00;;;;;14.53;61.17;100473.91;5009843;28;8918;-66
2023/03/30 09:49:44;;;;;;;;;8.33;5.33;;;;;14.66;60.47;100471.00;5010424;28;8937;-67
2023/03/30 09:52:21;;;;;;;;;2.00;2.00;;;;;14.76;59.67;100481.28;5011138;28;9136;-68
2023/03/30 09:54:48;;;;;;;;;3.00;3.00;;;;;14.77;60.19;100472.09;5011256;28;9074;-67
2023/03/30 09:57:31;;;;;;;;;2.00;1.67;;;;;14.70;60.49;100471.38;5011102;28;9184;-68
2023/03/30 10:00:00;;;;;;;;;3.00;2.00;;;;;14.88;60.44;100470.50;5010894;28;9077;-67
2023/03/30 10:02:29;;;;;;;;;4.00;2.50;;;;;15.06;60.26;100473.13;5006404;28;8926;-69
2023/03/30 10:05:02;;;;;;;;;4.33;2.67;;;;;15.13;59.65;100483.88;5001304;28;8823;-70
2023/03/30 10:07:40;;;;;;;;;5.00;2.67;;;;;14.99;59.79;100485.94;5010459;28;9002;-70
2023/03/30 10:10:25;;;;;;;;;2.67;2.67;;;;;14.78;60.36;100490.81;5010935;28;8908;-70
2023/03/30 10:13:10;;;;;;;;;1.25;1.25;;;;;14.73;60.51;100485.28;5010686;28;8914;-68
2023/03/30 10:15:40;;;;;;;;;3.00;2.00;;;;;14.84;60.37;100495.34;5010397;28;8861;-69
2023/03/30 10:18:26;;;;;;;;;6.00;2.00;;;;;14.94;59.81;100502.91;5010956;28;9051;-69
2023/03/30 10:21:13;;;;;;;;;4.00;2.67;;;;;15.10;60.31;100504.13;5011283;28;9006;-69
2023/03/30 10:23:43;;;;;;;;;2.00;2.00;;;;;15.21;59.73;100505.22;4991449;28;9784;-68
2023/03/30 10:26:18;;;;;;;;;1.00;1.00;;;;;15.34;59.34;100516.66;4991321;28;8992;-68
2023/03/30 10:28:56;;;;;;;;;3.67;3.67;;;;;15.42;59.42;100506.53;5009489;28;9592;-71
2023/03/30 10:31:26;;;;;;;;;4.50;2.25;;;;;15.32;58.72;100507.13;5010487;28;8935;-69
2023/03/30 10:33:59;;;;;;;;;2.00;1.00;;;;;15.49;58.89;100516.22;5010769;28;8831;-69
2023/03/30 10:36:32;;;;;;;;;2.50;2.00;;;;;15.50;58.30;100511.63;5010246;28;8885;-69
2023/03/30 10:39:06;;;;;;;;;2.25;2.00;;;;;15.49;58.45;100518.09;5010476;28;8835;-69
2023/03/30 10:41:36;;;;;;;;;3.00;1.00;;;;;15.38;58.10;100508.06;5010425;28;8957;-68
2023/03/30 10:44:18;;;;;;;;;2.67;2.67;;;;;15.41;58.63;100513.03;5009483;28;8928;-68
2023/03/30 10:46:48;;;;;;;;;1.00;1.00;;;;;15.43;58.37;100497.34;5008232;28;9042;-71
2023/03/30 10:49:43;;;;;;;;;3.25;1.75;;;;;15.23;58.94;100508.50;5009586;28;9004;-68
2023/03/30 10:52:35;;;;;;;;;8.00;3.33;;;;;15.15;58.38;100517.84;5008661;28;8897;-70
2023/03/30 10:55:22;;;;;;;;;3.00;2.00;;;;;15.27;58.32;100520.53;5010373;28;9064;-69
2023/03/30 10:57:53;;;;;;;;;6.00;3.00;;;;;15.24;57.93;100521.84;5010141;28;8942;-68
2023/03/30 11:00:28;;;;;;;;;2.67;2.00;;;;;15.19;57.82;100502.75;5010883;28;8893;-69
2023/03/30 11:03:09;;;;;;;;;2.50;2.25;;;;;15.15;58.14;100512.41;5010256;28;8946;-69
2023/03/30 11:05:45;;;;;;;;;2.00;2.00;;;;;15.04;57.99;100519.44;5008328;28;8835;-69
2023/03/30 11:08:16;;;;;;;;;2.33;1.33;;;;;15.15;58.15;100515.13;5009934;28;8988;-68
2023/03/30 11:10:48;;;;;;;;;1.00;1.00;;;;;15.15;58.56;100527.81;5010450;28;8994;-69
2023/03/30 11:13:25;;;;;;;;;6.33;1.00;;;;;15.14;58.41;100521.56;5010030;28;8949;-70
2023/03/30 11:16:00;;;;;;;;;3.25;3.00;;;;;15.13;58.37;100519.09;5009603;28;9564;-68
2023/03/30 11:18:31;;;;;;;;;5.67;3.00;;;;;15.07;58.88;100534.44;5008127;28;8823;-68
2023/03/30 11:21:11;;;;;;;;;1.75;1.75;;;;;14.91;59.70;100533.19;5010207;28;9000;-69
2023/03/30 11:23:43;;;;;;;;;3.33;2.33;;;;;14.94;60.05;100537.31;4990562;28;8854;-69
2023/03/30 11:26:13;;;;;;;;;4.00;1.67;;;;;15.00;60.19;100547.25;4990711;28;8933;-69
2023/03/30 11:28:49;;;;;;;;;2.33;2.33;;;;;14.98;59.98;100542.03;5010174;28;8988;-69
2023/03/30 11:31:31;;;;;;;;;6.00;2.00;;;;;14.94;60.22;100538.13;5007984;28;8940;-69
2023/03/30 11:34:32;;;;;;;;;5.33;3.00;;;;;14.76;60.39;100535.50;5009906;28;9016;-64
2023/03/30 11:37:10;;;;;;;;;3.67;3.67;;;;;14.74;60.40;100553.84;5002743;28;9106;-69
2023/03/30 11:39:46;;;;;;;;;2.00;2.00;;;;;14.90;60.84;100541.53;5010089;28;9089;-68
2023/03/30 11:42:14;;;;;;;;;4.00;2.33;;;;;15.02;60.54;100545.13;5005330;28;9882;-69
2023/03/30 11:44:42;;;;;;;;;9.00;4.33;;;;;15.25;60.17;100534.34;4996007;28;9255;-69
2023/03/30 11:47:25;;;;;;;;;5.00;3.33;;;;;15.26;59.52;100549.53;5009085;28;9708;-70
2023/03/30 11:50:19;;;;;;;;;4.00;3.00;;;;;15.38;59.67;100551.47;5009450;28;9169;-70
2023/03/30 11:52:57;;;;;;;;;5.00;1.67;;;;;15.47;59.25;100545.44;5009492;28;9177;-69
2023/03/30 11:55:33;;;;;;;;;2.00;2.00;;;;;15.55;59.28;100544.28;5009673;28;9178;-70
2023/03/30 11:58:13;;;;;;;;;2.00;2.00;;;;;15.60;59.04;100552.56;5009550;28;9061;-69
2023/03/30 12:01:06;;;;;;;;;6.00;3.00;;;;;15.61;58.58;100540.66;5008733;28;8923;-69
2023/03/30 12:03:54;;;;;;;;;6.33;5.00;;;;;15.53;58.68;100557.28;5012500;28;8889;-70
2023/03/30 12:06:36;;;;;;;;;5.33;3.00;;;;;15.57;59.09;100556.56;5012335;28;8913;-69
2023/03/30 12:09:13;;;;;;;;;6.33;3.00;;;;;15.60;58.62;100563.44;4993680;28;9127;-70
2023/03/30 12:11:49;;;;;;;;;4.67;3.67;;;;;15.49;57.99;100556.09;4996319;28;9123;-70
2023/03/30 12:14:25;;;;;;;;;6.00;3.00;;;;;15.31;58.56;100538.00;5028052;28;9024;-70